Time;durP1;ratioP1;P1;durP2;ratioP2;P2;SDS_P1;SDS_P2;PMS_P1;PMS_P2;Temp;Humidity;BMP_temperature;BMP_pressure;BME280_temperature;BME280_humidity;BME280_pressure;Samples;Min_cycle;Max_cycle;Signal;HPM_P1;HPM_P2
2022/08/02 00:00:13;;;;;;;6.15;2.45;;;20.20;1.00;;;;;;5053052;28;20401;-55
2022/08/02 00:02:42;;;;;;;6.95;2.65;;;20.20;1.00;;;;;;5052086;28;20401;-51
2022/08/02 00:05:08;;;;;;;5.87;2.67;;;20.20;1.00;;;;;;5052634;28;20771;-51
2022/08/02 00:07:34;;;;;;;6.50;2.80;;;20.20;1.00;;;;;;5052104;28;20385;-52
2022/08/02 00:10:00;;;;;;;7.30;2.60;;;20.20;1.00;;;;;;5052668;28;20381;-51
2022/08/02 00:12:26;;;;;;;6.87;2.90;;;20.30;1.00;;;;;;5051763;28;20405;-52
2022/08/02 00:14:51;;;;;;;6.93;3.27;;;20.30;1.00;;;;;;5052400;28;20397;-52
2022/08/02 00:17:17;;;;;;;8.05;2.90;;;20.30;1.00;;;;;;5052246;28;20789;-51
2022/08/02 00:19:43;;;;;;;9.50;3.45;;;20.20;1.00;;;;;;5051912;28;21071;-51
2022/08/02 00:22:09;;;;;;;7.70;3.10;;;20.10;1.00;;;;;;5052401;28;20421;-53
2022/08/02 00:24:35;;;;;;;7.43;3.40;;;20.00;1.00;;;;;;5052138;28;20413;-52
2022/08/02 00:27:02;;;;;;;7.50;3.50;;;19.90;13.80;;;;;;5052162;28;20404;-52
2022/08/02 00:29:29;;;;;;;7.50;3.80;;;19.90;23.60;;;;;;5051432;28;20496;-51
2022/08/02 00:31:55;;;;;;;8.15;3.20;;;19.90;17.10;;;;;;5052408;28;20522;-55
2022/08/02 00:34:21;;;;;;;9.00;3.33;;;19.70;51.80;;;;;;5051937;28;20397;-51
2022/08/02 00:36:47;;;;;;;8.47;3.47;;;19.70;61.20;;;;;;5051584;28;20388;-52
2022/08/02 00:39:12;;;;;;;6.90;3.30;;;19.70;54.30;;;;;;5052030;28;20742;-52
2022/08/02 00:41:50;;;;;;;8.50;3.30;;;19.60;82.60;;;;;;5051294;28;20393;-51
2022/08/02 00:44:16;;;;;;;7.20;3.15;;;19.60;91.90;;;;;;5051418;28;20420;-53
2022/08/02 00:46:43;;;;;;;6.50;3.10;;;19.70;91.20;;;;;;5051166;28;20393;-51
2022/08/02 00:49:09;;;;;;;6.90;3.40;;;19.70;92.60;;;;;;5051066;28;20393;-51
2022/08/02 00:51:35;;;;;;;7.70;3.55;;;19.70;74.60;;;;;;5048480;28;20508;-51
2022/08/02 00:54:01;;;;;;;8.10;3.83;;;19.70;99.90;;;;;;5052260;28;20488;-52
2022/08/02 00:56:27;;;;;;;7.10;3.50;;;19.60;99.90;;;;;;5051560;28;20396;-53
2022/08/02 00:58:53;;;;;;;7.85;4.00;;;19.60;99.90;;;;;;5051584;28;20397;-51
2022/08/02 01:01:19;;;;;;;7.63;3.83;;;19.50;99.90;;;;;;5052438;28;20473;-51
2022/08/02 01:03:44;;;;;;;7.83;3.80;;;19.50;99.90;;;;;;5050235;28;20473;-52
2022/08/02 01:06:10;;;;;;;7.03;3.70;;;19.50;99.90;;;;;;5051878;28;20388;-52
2022/08/02 01:08:39;;;;;;;8.68;3.72;;;19.60;99.90;;;;;;5050980;28;20459;-51
2022/08/02 01:11:05;;;;;;;7.50;3.83;;;19.50;99.90;;;;;;5051019;28;20406;-51
2022/08/02 01:13:30;;;;;;;8.90;3.90;;;19.40;99.90;;;;;;5050816;28;20393;-51
2022/08/02 01:16:04;;;;;;;12.90;4.30;;;19.40;99.90;;;;;;5051276;28;20386;-51
2022/08/02 01:18:37;;;;;;;7.32;3.85;;;19.40;99.90;;;;;;5050526;28;20397;-52
2022/08/02 01:21:24;;;;;;;9.40;4.10;;;19.40;99.90;;;;;;5050833;28;20940;-54
2022/08/02 01:24:05;;;;;;;7.83;3.70;;;19.40;99.90;;;;;;5050637;28;20390;-54
2022/08/02 01:26:47;;;;;;;8.00;4.20;;;19.30;99.90;;;;;;5049728;28;21236;-51
2022/08/02 01:29:28;;;;;;;7.80;4.00;;;19.30;99.90;;;;;;5050977;28;20412;-51
2022/08/02 01:32:06;;;;;;;9.00;3.88;;;19.20;99.90;;;;;;5050934;28;20401;-51
2022/08/02 01:34:48;;;;;;;7.15;3.80;;;19.20;99.90;;;;;;5049869;28;20492;-51
2022/08/02 01:37:19;;;;;;;8.73;3.90;;;19.10;99.90;;;;;;5050650;28;20476;-52
2022/08/02 01:39:49;;;;;;;7.93;3.53;;;19.20;99.90;;;;;;5051138;28;21526;-51
2022/08/02 01:42:17;;;;;;;8.10;3.97;;;19.20;99.90;;;;;;5050028;28;20472;-51
2022/08/02 01:44:44;;;;;;;10.18;3.80;;;19.20;99.90;;;;;;5049480;28;20407;-51
2022/08/02 01:47:16;;;;;;;7.03;3.35;;;19.10;99.90;;;;;;5050603;28;20806;-52
2022/08/02 01:49:46;;;;;;;7.50;3.80;;;19.20;99.90;;;;;;5050022;28;20399;-51
2022/08/02 01:52:24;;;;;;;7.68;3.40;;;19.20;99.90;;;;;;5050593;28;20405;-52
2022/08/02 01:55:04;;;;;;;7.80;3.90;;;19.20;99.90;;;;;;5049676;28;20508;-51
2022/08/02 01:57:36;;;;;;;8.90;3.38;;;19.20;99.90;;;;;;5047461;28;21021;-52
2022/08/02 02:00:04;;;;;;;8.60;4.13;;;19.20;99.90;;;;;;5050081;28;20439;-52
2022/08/02 02:02:31;;;;;;;6.90;3.15;;;19.30;99.90;;;;;;5049002;28;20429;-53
2022/08/02 02:04:58;;;;;;;7.22;3.70;;;19.30;99.90;;;;;;5050414;28;20447;-51
2022/08/02 02:07:25;;;;;;;8.43;3.00;;;19.30;99.90;;;;;;5050066;28;20397;-51
2022/08/02 02:09:53;;;;;;;7.55;3.70;;;19.30;99.90;;;;;;5050053;28;20396;-52
2022/08/02 02:12:23;;;;;;;7.50;3.37;;;19.30;99.90;;;;;;5050001;28;20584;-51
2022/08/02 02:14:49;;;;;;;8.95;3.85;;;19.30;99.90;;;;;;5049559;28;20389;-54
2022/08/02 02:17:17;;;;;;;8.38;3.40;;;19.20;99.90;;;;;;5047317;28;20378;-53
2022/08/02 02:19:44;;;;;;;8.10;3.13;;;19.10;99.90;;;;;;5049767;28;20439;-53
2022/08/02 02:22:11;;;;;;;7.93;3.75;;;19.10;99.90;;;;;;5050335;28;20398;-56
2022/08/02 02:24:37;;;;;;;7.13;3.50;;;19.10;99.90;;;;;;5049805;28;20382;-57
2022/08/02 02:27:06;;;;;;;6.88;3.30;;;19.10;99.90;;;;;;5050053;28;20409;-54
2022/08/02 02:29:34;;;;;;;6.88;3.40;;;19.10;99.90;;;;;;5049479;28;20401;-55
2022/08/02 02:32:04;;;;;;;7.22;3.28;;;19.00;99.90;;;;;;5049572;28;20509;-55
2022/08/02 02:34:37;;;;;;;9.48;3.55;;;19.00;99.90;;;;;;5049740;28;20394;-55
2022/08/02 02:37:04;;;;;;;6.95;3.63;;;19.00;99.90;;;;;;5047822;28;20474;-55
2022/08/02 02:39:32;;;;;;;8.80;3.40;;;18.90;99.90;;;;;;5049551;28;20474;-55
2022/08/02 02:42:01;;;;;;;7.63;3.47;;;18.90;99.90;;;;;;5049714;28;20385;-55
2022/08/02 02:44:29;;;;;;;8.50;3.58;;;18.90;99.90;;;;;;5030996;28;20752;-55
2022/08/02 02:46:56;;;;;;;6.90;3.10;;;18.80;99.90;;;;;;5049125;28;20402;-54
2022/08/02 02:49:23;;;;;;;10.32;3.58;;;18.80;99.90;;;;;;5050467;28;20373;-55
2022/08/02 02:51:51;;;;;;;6.70;3.00;;;18.80;99.90;;;;;;5048852;28;20421;-54
2022/08/02 02:54:17;;;;;;;9.82;3.58;;;18.90;99.90;;;;;;5046834;28;20409;-53
2022/08/02 02:56:45;;;;;;;6.70;2.90;;;18.80;99.90;;;;;;5048769;28;20397;-55
2022/08/02 02:59:13;;;;;;;7.78;3.53;;;18.80;99.90;;;;;;5049624;28;20424;-54
2022/08/02 03:01:40;;;;;;;9.73;3.30;;;18.80;99.90;;;;;;5048184;28;20393;-55
2022/08/02 03:04:08;;;;;;;8.70;3.40;;;18.80;99.90;;;;;;5049652;28;20369;-56
2022/08/02 03:06:36;;;;;;;7.47;3.10;;;18.80;99.90;;;;;;5048570;28;20397;-54
2022/08/02 03:09:02;;;;;;;6.50;3.00;;;18.80;99.90;;;;;;5049465;28;20396;-54
2022/08/02 03:11:29;;;;;;;7.10;2.88;;;18.90;99.90;;;;;;5048841;28;20433;-55
2022/08/02 03:13:57;;;;;;;6.93;3.20;;;18.90;99.90;;;;;;5049062;28;20476;-56
2022/08/02 03:16:24;;;;;;;7.40;2.80;;;18.90;99.90;;;;;;5049781;28;20385;-57
2022/08/02 03:18:50;;;;;;;6.43;3.10;;;18.90;92.20;;;;;;5048268;28;20385;-53
2022/08/02 03:21:15;;;;;;;7.78;3.53;;;18.80;99.90;;;;;;5049065;28;20496;-56
2022/08/02 03:23:42;;;;;;;6.97;3.27;;;18.80;99.90;;;;;;5048295;28;20386;-55
2022/08/02 03:26:09;;;;;;;8.05;2.95;;;18.80;99.90;;;;;;5048996;28;20397;-55
2022/08/02 03:28:34;;;;;;;7.97;3.30;;;18.70;99.90;;;;;;5048303;28;20420;-51
2022/08/02 03:31:00;;;;;;;6.60;3.00;;;18.60;99.90;;;;;;5048750;28;20401;-51
2022/08/02 03:33:27;;;;;;;6.68;3.10;;;18.60;99.90;;;;;;5048887;28;20397;-51
2022/08/02 03:35:55;;;;;;;7.70;3.17;;;18.50;99.90;;;;;;5048604;28;20839;-51
2022/08/02 03:38:23;;;;;;;8.50;3.60;;;18.50;99.90;;;;;;5048686;28;20451;-54
2022/08/02 03:40:50;;;;;;;7.80;3.00;;;18.50;99.90;;;;;;5048526;28;20388;-55
2022/08/02 03:43:16;;;;;;;7.15;3.20;;;18.40;99.90;;;;;;5046082;28;20790;-54
2022/08/02 03:45:44;;;;;;;6.68;2.80;;;18.40;99.90;;;;;;5048010;28;20422;-54
2022/08/02 03:48:11;;;;;;;6.40;3.00;;;18.50;99.90;;;;;;5048749;28;20400;-54
2022/08/02 03:50:38;;;;;;;6.50;2.88;;;18.40;99.90;;;;;;5048112;28;20476;-55
2022/08/02 03:53:05;;;;;;;6.73;2.50;;;18.40;99.90;;;;;;5049238;28;20417;-54
2022/08/02 03:55:31;;;;;;;8.80;3.30;;;18.50;99.90;;;;;;5047682;28;20907;-59
2022/08/02 03:57:57;;;;;;;9.00;3.20;;;18.50;97.80;;;;;;5046144;28;20393;-56
2022/08/02 04:00:24;;;;;;;7.73;3.00;;;18.50;71.80;;;;;;5048625;28;20408;-53
2022/08/02 04:02:50;;;;;;;7.83;3.10;;;19.70;63.80;;;;;;5047774;28;20915;-52
2022/08/02 04:05:17;;;;;;;7.38;3.10;;;18.60;55.70;;;;;;5045899;28;20393;-58
2022/08/02 04:07:42;;;;;;;8.13;3.20;;;18.50;54.20;;;;;;5047566;28;20389;-51
2022/08/02 04:10:09;;;;;;;7.10;3.40;;;18.50;45.10;;;;;;5049121;28;20488;-51
2022/08/02 04:12:35;;;;;;;9.55;3.15;;;18.40;36.90;;;;;;5047733;28;20411;-55
2022/08/02 04:15:02;;;;;;;7.17;2.80;;;18.50;27.80;;;;;;5047918;28;20746;-52
2022/08/02 04:17:32;;;;;;;6.53;2.80;;;18.40;53.00;;;;;;5047978;28;20451;-52
2022/08/02 04:20:09;;;;;;;7.03;3.38;;;18.50;16.20;;;;;;5048467;28;20393;-51
2022/08/02 04:22:43;;;;;;;7.77;2.90;;;18.60;1.00;;;;;;5048189;28;20425;-51
2022/08/02 04:25:10;;;;;;;7.35;3.20;;;18.50;1.00;;;;;;5051434;28;20389;-51
2022/08/02 04:27:36;;;;;;;7.43;3.30;;;18.50;1.00;;;;;;5051584;28;20468;-51
2022/08/02 04:30:04;;;;;;;8.13;3.42;;;18.60;1.00;;;;;;5043859;28;20444;-51
2022/08/02 04:32:31;;;;;;;8.15;2.90;;;18.70;1.00;;;;;;5051898;28;20413;-53
2022/08/02 04:34:57;;;;;;;9.25;2.80;;;18.80;1.00;;;;;;5052013;28;20755;-51
2022/08/02 04:37:24;;;;;;;6.80;2.90;;;18.80;1.00;;;;;;5052440;28;20401;-52
2022/08/02 04:39:50;;;;;;;7.40;3.30;;;19.00;1.00;;;;;;5051353;28;20401;-51
2022/08/02 04:42:24;;;;;;;7.50;3.70;;;19.10;1.00;;;;;;5051761;28;21098;-51
2022/08/02 04:44:50;;;;;;;8.18;3.10;;;;;;;;;;5051377;28;20448;-51
2022/08/02 04:47:17;;;;;;;8.13;2.90;;;19.10;1.00;;;;;;5051909;28;20377;-51
2022/08/02 04:49:42;;;;;;;7.07;3.10;;;19.20;1.00;;;;;;5050699;28;20393;-52
2022/08/02 04:52:08;;;;;;;8.50;3.57;;;19.20;1.00;;;;;;5050902;28;20464;-56
2022/08/02 04:54:34;;;;;;;6.43;3.10;;;19.30;1.00;;;;;;5051416;28;20881;-51
2022/08/02 04:56:59;;;;;;;8.20;3.60;;;19.40;1.00;;;;;;5052231;28;20420;-51
2022/08/02 04:59:25;;;;;;;7.88;3.75;;;19.70;1.00;;;;;;5051958;28;20445;-51
2022/08/02 05:01:51;;;;;;;9.98;3.85;;;19.90;1.00;;;;;;5049438;28;20492;-51
2022/08/02 05:04:17;;;;;;;8.70;3.40;;;20.10;99.90;;;;;;5050876;28;20396;-52
2022/08/02 05:06:42;;;;;;;7.82;3.30;;;20.40;99.90;;;;;;5050720;28;20805;-51
2022/08/02 05:09:08;;;;;;;7.30;3.20;;;20.70;99.90;;;;;;5051698;28;20422;-51
2022/08/02 05:11:33;;;;;;;8.90;3.30;;;21.00;1.00;;;;;;5050367;28;20405;-51
2022/08/02 05:13:59;;;;;;;7.83;3.10;;;21.40;44.40;;;;;;5051773;28;20385;-52
2022/08/02 05:16:26;;;;;;;9.33;3.00;;;21.70;99.90;;;;;;5034139;28;20393;-52
2022/08/02 05:18:51;;;;;;;10.10;3.20;;;22.10;1.00;;;;;;5050221;28;20442;-51
2022/08/02 05:21:17;;;;;;;7.63;2.80;;;22.50;1.00;;;;;;5050736;28;20492;-52
2022/08/02 05:23:43;;;;;;;9.35;3.47;;;23.10;99.90;;;;;;5050924;28;20448;-52
2022/08/02 05:26:08;;;;;;;7.18;2.90;;;23.60;99.90;;;;;;5051218;28;20393;-51
2022/08/02 05:28:34;;;;;;;8.93;2.88;;;23.90;99.90;;;;;;5032475;28;20409;-51
2022/08/02 05:31:00;;;;;;;7.50;2.90;;;24.10;99.90;;;;;;5050547;28;20471;-58
2022/08/02 05:33:25;;;;;;;8.53;3.00;;;24.40;61.70;;;;;;5050603;28;20393;-55
2022/08/02 05:35:51;;;;;;;7.23;3.10;;;24.70;1.00;;;;;;5050705;28;20481;-52
2022/08/02 05:38:17;;;;;;;8.57;2.90;;;24.60;1.00;;;;;;5050916;28;20390;-52
2022/08/02 05:40:42;;;;;;;8.10;3.10;;;24.60;1.00;;;;;;5050261;28;20866;-53
2022/08/02 05:43:15;;;;;;;7.97;2.87;;;24.90;1.00;;;;;;5051006;28;20396;-54
2022/08/02 05:45:41;;;;;;;8.20;3.08;;;25.70;1.00;;;;;;5049834;28;20790;-53
2022/08/02 05:48:07;;;;;;;8.00;2.20;;;26.20;1.00;;;;;;5050255;28;20398;-52
2022/08/02 05:50:36;;;;;;;7.45;2.70;;;26.90;1.00;;;;;;5050323;28;20488;-57
2022/08/02 05:53:16;;;;;;;8.30;2.83;;;27.40;99.90;;;;;;5046592;28;20393;-52
2022/08/02 05:55:52;;;;;;;7.10;3.00;;;27.90;99.90;;;;;;5032563;28;20617;-55
2022/08/02 05:58:30;;;;;;;7.53;2.55;;;28.50;99.90;;;;;;5050924;28;20556;-53
2022/08/02 06:00:59;;;;;;;7.70;2.50;;;28.50;99.90;;;;;;5050977;28;20504;-53
2022/08/02 06:03:30;;;;;;;7.75;2.53;;;29.10;99.90;;;;;;5048547;28;20397;-57
2022/08/02 06:06:03;;;;;;;7.80;2.90;;;29.00;99.90;;;;;;5046282;28;20870;-52
2022/08/02 06:08:36;;;;;;;7.70;2.53;;;29.40;99.90;;;;;;5051502;28;20430;-52
2022/08/02 06:11:04;;;;;;;7.60;2.90;;;30.00;99.90;;;;;;5050363;28;20429;-52
2022/08/02 06:13:30;;;;;;;8.43;2.20;;;29.70;99.90;;;;;;5050498;28;20401;-52
2022/08/02 06:15:58;;;;;;;7.57;2.85;;;28.40;99.90;;;;;;5050770;28;20457;-52
2022/08/02 06:18:27;;;;;;;6.22;2.33;;;28.80;99.90;;;;;;5050876;28;20392;-52
2022/08/02 06:21:00;;;;;;;9.20;2.88;;;27.60;99.90;;;;;;5049671;28;20425;-51
2022/08/02 06:23:28;;;;;;;7.70;2.67;;;27.00;99.90;;;;;;5050341;28;20476;-52
2022/08/02 06:25:56;;;;;;;7.60;2.77;;;27.10;99.90;;;;;;5049907;28;20397;-56
2022/08/02 06:28:22;;;;;;;11.00;2.60;;;26.80;99.90;;;;;;5049928;28;20956;-51
2022/08/02 06:30:49;;;;;;;9.90;2.35;;;26.80;99.90;;;;;;5049157;28;20398;-52
2022/08/02 06:33:17;;;;;;;7.10;2.50;;;26.60;99.90;;;;;;5049029;28;21407;-52
2022/08/02 06:36:00;;;;;;;6.60;2.60;;;26.40;99.90;;;;;;5049622;28;20471;-52
2022/08/02 06:38:39;;;;;;;6.60;2.53;;;26.80;99.90;;;;;;5050224;28;20389;-52
2022/08/02 06:41:08;;;;;;;6.15;2.00;;;27.80;99.90;;;;;;5049805;28;20408;-52
2022/08/02 06:43:54;;;;;;;5.85;2.30;;;29.10;99.90;;;;;;5031750;28;20393;-60
2022/08/02 06:46:20;;;;;;;7.50;3.03;;;30.30;99.90;;;;;;5049750;28;20385;-52
2022/08/02 06:48:46;;;;;;;8.10;3.50;;;30.70;99.90;;;;;;5048957;28;20393;-53
2022/08/02 06:51:12;;;;;;;7.27;3.33;;;30.40;99.90;;;;;;5049388;28;20413;-52
2022/08/02 06:53:39;;;;;;;7.10;2.80;;;30.30;99.90;;;;;;5049136;28;20772;-52
2022/08/02 06:56:05;;;;;;;7.20;3.20;;;30.80;99.90;;;;;;5050323;28;20401;-52
2022/08/02 06:58:30;;;;;;;7.55;3.97;;;31.50;99.90;;;;;;5049969;28;20750;-53
2022/08/02 07:00:56;;;;;;;7.80;4.70;;;31.80;99.90;;;;;;5048584;28;20451;-53
2022/08/02 07:03:24;;;;;;;7.90;3.23;;;31.60;99.90;;;;;;5049640;28;20874;-53
2022/08/02 07:05:50;;;;;;;7.60;3.90;;;32.90;99.90;;;;;;5051886;28;20882;-52
2022/08/02 07:08:17;;;;;;;8.43;4.47;;;33.00;99.90;;;;;;5056443;28;20872;-52
2022/08/02 07:10:43;;;;;;;9.15;4.75;;;32.20;99.90;;;;;;5056386;28;20443;-56
2022/08/02 07:13:09;;;;;;;9.95;5.90;;;31.80;99.90;;;;;;5068690;28;20388;-53
2022/08/02 07:15:36;;;;;;;10.38;5.30;;;32.30;99.90;;;;;;5048943;28;20376;-61
2022/08/02 07:18:02;;;;;;;10.73;6.15;;;33.30;99.90;;;;;;5051224;28;20418;-53
2022/08/02 07:20:28;;;;;;;10.48;6.97;;;34.60;99.90;;;;;;5055751;28;20380;-53
2022/08/02 07:22:53;;;;;;;10.20;7.10;;;34.10;99.90;;;;;;5065591;28;20398;-53
2022/08/02 07:25:19;;;;;;;8.50;6.93;;;34.50;99.90;;;;;;5049026;28;20398;-53
2022/08/02 07:27:45;;;;;;;7.50;4.47;;;34.10;99.90;;;;;;5048314;28;20413;-53
2022/08/02 07:30:11;;;;;;;7.73;3.67;;;34.80;99.90;;;;;;5049296;28;20493;-53
2022/08/02 07:32:37;;;;;;;8.88;4.45;;;34.90;99.90;;;;;;5049014;28;20441;-53
2022/08/02 07:35:04;;;;;;;9.98;4.40;;;36.00;99.90;;;;;;5049696;28;20366;-53
2022/08/02 07:37:32;;;;;;;10.02;3.60;;;35.30;99.90;;;;;;5049492;28;20481;-53
2022/08/02 07:39:58;;;;;;;8.98;4.68;;;35.00;99.90;;;;;;5049153;28;20365;-53
2022/08/02 07:42:23;;;;;;;9.00;4.05;;;35.20;99.90;;;;;;5049898;28;20450;-53
2022/08/02 07:44:50;;;;;;;10.50;4.40;;;35.10;99.90;;;;;;5049356;28;20378;-52
2022/08/02 07:47:15;;;;;;;7.72;4.35;;;34.50;99.90;;;;;;5050113;28;20389;-52
2022/08/02 07:49:41;;;;;;;10.53;7.13;;;34.60;99.90;;;;;;5048729;28;20392;-53
2022/08/02 07:52:07;;;;;;;9.80;8.10;;;34.30;99.90;;;;;;5049727;28;20471;-53
2022/08/02 07:54:32;;;;;;;9.45;7.80;;;35.20;99.90;;;;;;5049338;28;20409;-57
2022/08/02 07:56:59;;;;;;;9.50;7.00;;;34.50;99.90;;;;;;5050047;28;20678;-53
2022/08/02 07:59:26;;;;;;;11.63;7.60;;;35.00;99.90;;;;;;5051034;28;20443;-53
2022/08/02 08:01:51;;;;;;;9.13;7.20;;;35.20;99.90;;;;;;5051291;28;21249;-55
2022/08/02 08:04:18;;;;;;;8.30;6.97;;;35.90;99.90;;;;;;5052272;28;20397;-56
2022/08/02 08:06:44;;;;;;;9.10;6.17;;;35.30;99.90;;;;;;5051795;28;20381;-55
2022/08/02 08:09:11;;;;;;;9.30;4.97;;;35.40;99.90;;;;;;5053118;28;20399;-56
2022/08/02 08:11:37;;;;;;;8.73;4.10;;;37.30;99.90;;;;;;5051844;28;20896;-55
2022/08/02 08:14:05;;;;;;;8.60;5.90;;;36.50;99.90;;;;;;5052878;28;20381;-56
2022/08/02 08:16:31;;;;;;;8.20;6.28;;;36.20;99.90;;;;;;5053171;28;20413;-56
2022/08/02 08:18:57;;;;;;;8.20;6.32;;;36.30;99.90;;;;;;5052850;28;20772;-55
2022/08/02 08:21:22;;;;;;;9.02;5.85;;;35.40;99.90;;;;;;5053009;28;20393;-56
2022/08/02 08:23:48;;;;;;;8.30;5.67;;;35.30;99.90;;;;;;5052370;28;20389;-55
2022/08/02 08:26:13;;;;;;;9.60;6.95;;;35.50;99.90;;;;;;5053068;28;20431;-55
2022/08/02 08:28:39;;;;;;;8.20;5.53;;;35.60;99.90;;;;;;5051975;28;20768;-56
2022/08/02 08:31:05;;;;;;;9.07;5.80;;;35.50;99.90;;;;;;5052777;28;20466;-55
2022/08/02 08:33:31;;;;;;;9.00;6.10;;;35.00;99.90;;;;;;5052335;28;20527;-55
2022/08/02 08:35:57;;;;;;;9.95;6.70;;;35.00;99.90;;;;;;5051589;28;20437;-56
2022/08/02 08:38:22;;;;;;;8.20;6.53;;;34.80;99.90;;;;;;5052602;28;20839;-55
2022/08/02 08:40:49;;;;;;;7.73;5.90;;;34.60;99.90;;;;;;5051876;28;20386;-56
2022/08/02 08:43:14;;;;;;;9.05;5.80;;;35.20;99.90;;;;;;5052823;28;20433;-57
2022/08/02 08:45:43;;;;;;;8.20;5.90;;;35.30;99.90;;;;;;5051652;28;20382;-55
2022/08/02 08:48:17;;;;;;;8.80;6.03;;;34.90;99.90;;;;;;5034911;28;20385;-55
2022/08/02 08:51:14;;;;;;;9.30;5.90;;;35.30;99.90;;;;;;5052272;28;20797;-56
2022/08/02 08:53:44;;;;;;;9.68;6.88;;;36.00;99.90;;;;;;5016326;28;20404;-56
2022/08/02 08:56:14;;;;;;;8.80;6.03;;;37.10;99.90;;;;;;5052649;28;20398;-56
2022/08/02 08:58:39;;;;;;;9.30;7.07;;;38.10;99.90;;;;;;5051619;28;20392;-56
2022/08/02 09:01:05;;;;;;;8.32;7.35;;;36.70;99.90;;;;;;5052712;28;20369;-56
2022/08/02 09:03:31;;;;;;;8.80;7.13;;;35.80;99.90;;;;;;5052318;28;20366;-56
2022/08/02 09:05:57;;;;;;;7.50;6.23;;;35.10;99.90;;;;;;5052180;28;20449;-56
2022/08/02 09:08:23;;;;;;;8.48;6.25;;;34.70;99.90;;;;;;5052096;28;20389;-56
2022/08/02 09:10:49;;;;;;;9.77;7.00;;;34.70;99.90;;;;;;5050996;28;20920;-55
2022/08/02 09:13:21;;;;;;;8.50;6.10;;;34.70;99.90;;;;;;5052239;28;20377;-56
2022/08/02 09:15:55;;;;;;;7.90;5.78;;;35.40;99.90;;;;;;5051011;28;20417;-56
2022/08/02 09:18:32;;;;;;;8.80;6.18;;;36.60;99.90;;;;;;5052128;28;20394;-56
2022/08/02 09:21:01;;;;;;;7.40;5.00;;;36.90;99.90;;;;;;5052391;28;20390;-57
2022/08/02 09:23:35;;;;;;;7.45;4.03;;;38.60;99.90;;;;;;5051929;28;20389;-56
2022/08/02 09:26:06;;;;;;;7.68;5.43;;;38.70;99.90;;;;;;5052178;28;20415;-56
2022/08/02 09:28:34;;;;;;;9.05;4.18;;;39.20;99.90;;;;;;5051760;28;20448;-56
2022/08/02 09:31:09;;;;;;;9.27;4.30;;;37.80;99.90;;;;;;5051546;28;20405;-56
2022/08/02 09:33:36;;;;;;;9.70;3.45;;;37.00;99.90;;;;;;5051482;28;20389;-59
2022/08/02 09:36:13;;;;;;;9.88;5.43;;;36.50;99.90;;;;;;5051555;28;20431;-56
2022/08/02 09:38:40;;;;;;;8.00;4.60;;;36.40;99.90;;;;;;5050845;28;20400;-56
2022/08/02 09:41:22;;;;;;;8.05;3.90;;;36.80;99.90;;;;;;5051532;28;20859;-56
2022/08/02 09:43:48;;;;;;;7.50;3.60;;;37.50;99.90;;;;;;5051217;28;20373;-56
2022/08/02 09:46:18;;;;;;;7.95;4.00;;;37.90;99.90;;;;;;5051970;28;20451;-56
2022/08/02 09:49:02;;;;;;;9.70;7.05;;;36.70;99.90;;;;;;5050689;28;20955;-56
2022/08/02 09:51:48;;;;;;;7.80;6.90;;;36.20;99.90;;;;;;5051523;28;20889;-56
2022/08/02 09:54:18;;;;;;;7.50;4.30;;;37.20;99.90;;;;;;5051138;28;20393;-56
2022/08/02 09:56:48;;;;;;;7.68;3.88;;;37.50;99.90;;;;;;5050272;28;20407;-56
2022/08/02 09:59:15;;;;;;;7.05;3.60;;;37.80;99.90;;;;;;5051197;28;20878;-56
2022/08/02 10:01:43;;;;;;;7.38;3.80;;;38.70;99.90;;;;;;5050346;28;20392;-56
2022/08/02 10:04:10;;;;;;;7.90;5.03;;;40.30;99.90;;;;;;5051715;28;20385;-56
2022/08/02 10:06:40;;;;;;;9.10;4.22;;;40.80;99.90;;;;;;5050747;28;20850;-56
2022/08/02 10:09:08;;;;;;;7.15;3.40;;;41.10;99.90;;;;;;5051049;28;20499;-56
2022/08/02 10:11:34;;;;;;;7.00;3.50;;;40.70;99.90;;;;;;5050233;28;20442;-56
2022/08/02 10:14:02;;;;;;;8.25;7.35;;;39.60;99.90;;;;;;5050718;28;20458;-56
2022/08/02 10:16:28;;;;;;;9.40;8.40;;;38.10;99.90;;;;;;5050956;28;20726;-56
2022/08/02 10:18:55;;;;;;;7.70;6.23;;;37.50;99.90;;;;;;5050191;28;20460;-56
2022/08/02 10:21:31;;;;;;;8.68;7.43;;;37.50;99.90;;;;;;5050737;28;20476;-57
2022/08/02 10:24:23;;;;;;;9.40;7.50;;;37.30;99.90;;;;;;5050088;28;20523;-57
2022/08/02 10:26:49;;;;;;;8.57;7.50;;;36.40;99.90;;;;;;5045405;28;20417;-56
2022/08/02 10:29:17;;;;;;;9.07;7.20;;;35.80;99.90;;;;;;5050160;28;20392;-56
2022/08/02 10:31:48;;;;;;;7.70;6.05;;;36.20;99.90;;;;;;5049632;28;20891;-56
2022/08/02 10:34:18;;;;;;;8.00;5.80;;;36.20;99.90;;;;;;5050747;28;20741;-56
2022/08/02 10:36:45;;;;;;;9.40;6.00;;;36.20;99.90;;;;;;5050439;28;20874;-56
2022/08/02 10:39:11;;;;;;;8.00;6.10;;;35.60;99.90;;;;;;5050630;28;20738;-55
2022/08/02 10:41:42;;;;;;;8.68;6.40;;;34.80;99.90;;;;;;5049870;28;20392;-56
2022/08/02 10:44:18;;;;;;;9.40;6.75;;;34.90;99.90;;;;;;5050573;28;20378;-56
2022/08/02 10:46:44;;;;;;;9.23;7.22;;;34.10;99.90;;;;;;5049629;28;20377;-56
2022/08/02 10:49:20;;;;;;;8.90;6.90;;;33.50;99.90;;;;;;5050738;28;20550;-55
2022/08/02 10:52:01;;;;;;;9.30;7.60;;;32.90;99.90;;;;;;5049202;28;20502;-55
2022/08/02 10:54:31;;;;;;;8.82;6.07;;;32.40;99.90;;;;;;5050379;28;20460;-55
2022/08/02 10:56:59;;;;;;;8.95;7.15;;;31.90;99.90;;;;;;5050168;28;20393;-55
2022/08/02 10:59:28;;;;;;;11.40;7.63;;;31.60;99.90;;;;;;5050312;28;20421;-55
2022/08/02 11:02:01;;;;;;;8.50;6.88;;;31.50;99.90;;;;;;5049409;28;20396;-55
2022/08/02 11:04:35;;;;;;;8.40;7.05;;;31.50;99.90;;;;;;5050330;28;20381;-55
2022/08/02 11:07:13;;;;;;;8.70;7.45;;;31.90;99.90;;;;;;5050466;28;20434;-55
2022/08/02 11:09:40;;;;;;;8.50;6.10;;;32.40;99.90;;;;;;5049095;28;20862;-55
2022/08/02 11:12:15;;;;;;;8.63;6.90;;;32.20;99.90;;;;;;5050327;28;20409;-55
2022/08/02 11:14:43;;;;;;;8.05;6.10;;;32.10;99.90;;;;;;5049740;28;20385;-55
2022/08/02 11:17:17;;;;;;;8.77;5.80;;;32.60;99.90;;;;;;5031677;28;20394;-55
2022/08/02 11:20:11;;;;;;;9.20;6.53;;;32.90;99.90;;;;;;5049350;28;20382;-56
2022/08/02 11:22:40;;;;;;;9.40;6.47;;;33.50;99.90;;;;;;5049288;28;20835;-55
2022/08/02 11:25:21;;;;;;;8.20;5.68;;;33.70;99.90;;;;;;5049603;28;20480;-55
2022/08/02 11:27:51;;;;;;;11.00;6.40;;;33.80;99.90;;;;;;5048718;28;20416;-56
2022/08/02 11:30:18;;;;;;;7.82;6.22;;;34.00;99.90;;;;;;5050011;28;20373;-55
2022/08/02 11:32:44;;;;;;;9.20;5.88;;;33.90;99.90;;;;;;5049648;28;20439;-55
2022/08/02 11:35:09;;;;;;;8.90;6.50;;;33.60;99.90;;;;;;5056564;28;20385;-57
2022/08/02 11:37:41;;;;;;;8.80;6.00;;;33.30;99.90;;;;;;5056176;28;20468;-59
2022/08/02 11:40:16;;;;;;;7.80;5.57;;;33.20;99.90;;;;;;5056294;28;20807;-55
2022/08/02 11:42:49;;;;;;;9.85;6.20;;;33.00;99.90;;;;;;5055858;28;20385;-55
2022/08/02 11:45:15;;;;;;;8.57;6.88;;;33.00;99.90;;;;;;5056044;28;20388;-57
2022/08/02 11:47:46;;;;;;;9.18;7.18;;;32.80;99.90;;;;;;5055438;28;20531;-55
2022/08/02 11:50:11;;;;;;;7.90;6.57;;;32.90;99.90;;;;;;5056178;28;20413;-56
2022/08/02 11:52:38;;;;;;;8.13;5.90;;;33.00;99.90;;;;;;5055899;28;20850;-59
2022/08/02 11:55:07;;;;;;;9.70;6.47;;;33.20;99.90;;;;;;5056530;28;20396;-55
2022/08/02 11:57:34;;;;;;;8.50;6.30;;;33.20;99.90;;;;;;5055794;28;20422;-59
2022/08/02 12:00:00;;;;;;;9.80;6.10;;;33.20;99.90;;;;;;5055931;28;20431;-56
2022/08/02 12:02:31;;;;;;;9.00;6.27;;;33.40;99.90;;;;;;5056320;28;20393;-55
2022/08/02 12:04:56;;;;;;;12.07;6.45;;;33.50;99.90;;;;;;5055502;28;20378;-56
2022/08/02 12:07:26;;;;;;;8.03;6.00;;;33.40;99.90;;;;;;5056455;28;20381;-55
2022/08/02 12:09:52;;;;;;;8.38;5.50;;;33.10;99.90;;;;;;5055097;28;20438;-55
2022/08/02 12:12:17;;;;;;;7.53;5.60;;;33.30;99.90;;;;;;5055585;28;20409;-56
2022/08/02 12:14:43;;;;;;;7.93;5.80;;;33.60;99.90;;;;;;5054903;28;20389;-55
2022/08/02 12:19:53;;;;;;;7.88;5.75;;;33.40;99.90;;;;;;5055701;28;20770;-56
2022/08/02 12:22:23;;;;;;;7.43;5.30;;;33.10;99.90;;;;;;5056111;28;20392;-55
2022/08/02 12:24:52;;;;;;;7.85;5.70;;;33.20;99.90;;;;;;5054865;28;20791;-55
2022/08/02 12:27:37;;;;;;;7.72;5.60;;;33.00;99.90;;;;;;5055684;28;20401;-56
2022/08/02 12:30:10;;;;;;;9.27;5.95;;;32.90;99.90;;;;;;5055848;28;20396;-56
2022/08/02 12:32:36;;;;;;;11.77;5.70;;;33.10;99.90;;;;;;5055617;28;20406;-55
2022/08/02 12:35:12;;;;;;;8.13;5.60;;;32.90;99.90;;;;;;5055934;28;20377;-56
2022/08/02 12:37:42;;;;;;;7.27;5.33;;;32.80;99.90;;;;;;5055562;28;20890;-59
2022/08/02 12:40:20;;;;;;;8.20;6.30;;;33.20;99.90;;;;;;5055494;28;20929;-56
2022/08/02 12:42:48;;;;;;;8.07;5.50;;;33.40;99.90;;;;;;5055169;28;20385;-56
2022/08/02 12:45:13;;;;;;;8.02;6.15;;;33.20;99.90;;;;;;5053198;28;20452;-55
2022/08/02 12:47:47;;;;;;;7.80;6.03;;;33.30;99.90;;;;;;5051792;28;20385;-59
2022/08/02 12:50:22;;;;;;;7.47;5.63;;;33.00;99.90;;;;;;5052290;28;20385;-55
2022/08/02 12:52:49;;;;;;;8.10;6.20;;;32.60;99.90;;;;;;5051731;28;20408;-55
2022/08/02 12:55:27;;;;;;;7.38;5.30;;;33.00;99.90;;;;;;5052321;28;20405;-55
2022/08/02 12:57:56;;;;;;;7.57;5.20;;;32.90;99.90;;;;;;5051763;28;20382;-56